Time;durP1;ratioP1;P1;durP2;ratioP2;P2;SDS_P1;SDS_P2;PMS_P1;PMS_P2;Temp;Humidity;BMP_temperature;BMP_pressure;BME280_temperature;BME280_humidity;BME280_pressure;Samples;Min_cycle;Max_cycle;Signal;HPM_P1;HPM_P2
2021/12/17 00:00:48;;;;;;;15.23;11.07;;;;;;;1.50;100.00;96524.59;4950080;28;20683;-72
2021/12/17 00:03:33;;;;;;;14.83;10.57;;;;;;;1.47;100.00;96513.75;4964998;28;20198;-72
2021/12/17 00:08:38;;;;;;;13.80;9.80;;;;;;;1.27;100.00;96524.56;4952085;29;20263;-73
2021/12/17 00:11:05;;;;;;;16.03;9.47;;;;;;;1.31;100.00;96513.13;4955622;28;20587;-73
2021/12/17 00:13:32;;;;;;;13.70;10.20;;;;;;;1.31;100.00;96513.88;4943853;28;20656;-73
2021/12/17 00:15:58;;;;;;;12.23;9.63;;;;;;;1.39;100.00;96512.88;4956142;28;20193;-73
2021/12/17 00:18:40;;;;;;;10.90;9.33;;;;;;;1.33;100.00;96500.06;4955969;28;20193;-73
2021/12/17 00:53:26;;;;;;;12.60;9.93;;;;;;;1.91;100.00;96490.63;4935694;28;20186;-72
2021/12/17 00:55:52;;;;;;;12.13;9.47;;;;;;;1.99;100.00;96503.06;4951249;29;20256;-73
2021/12/17 00:58:18;;;;;;;14.03;10.33;;;;;;;1.99;100.00;96525.41;4958627;28;20189;-73
2021/12/17 01:00:44;;;;;;;13.33;9.10;;;;;;;1.89;100.00;96500.97;4953859;28;20722;-72
2021/12/17 01:03:10;;;;;;;12.37;9.53;;;;;;;2.01;100.00;96500.78;4954456;28;20566;-73
2021/12/17 01:05:37;;;;;;;15.90;11.10;;;;;;;1.95;100.00;96503.00;4954557;29;20245;-73
2021/12/17 01:08:05;;;;;;;12.20;9.63;;;;;;;1.87;100.00;96511.34;4959854;28;20193;-73
2021/12/17 01:10:35;;;;;;;11.37;9.57;;;;;;;1.93;100.00;96516.06;4939112;29;20232;-73
2021/12/17 01:13:22;;;;;;;13.43;10.37;;;;;;;1.98;100.00;96506.91;4952486;28;20233;-73
2021/12/17 01:16:07;;;;;;;13.87;10.20;;;;;;;2.03;100.00;96515.47;4955226;29;20218;-73
2021/12/17 01:22:28;;;;;;;16.50;10.80;;;;;;;2.01;100.00;96519.63;4962528;28;20216;-73
2021/12/17 01:36:32;;;;;;;13.87;10.73;;;;;;;2.07;100.00;96500.09;4948798;29;20202;-73
2021/12/17 01:43:56;;;;;;;14.70;10.87;;;;;;;1.99;100.00;96494.97;4946421;29;20209;-73
2021/12/17 01:46:26;;;;;;;16.23;11.77;;;;;;;2.07;100.00;96493.97;4937400;29;20201;-73
2021/12/17 02:00:10;;;;;;;15.83;11.33;;;;;;;2.20;100.00;96474.50;4944772;28;20225;-73
2021/12/17 02:03:12;;;;;;;15.80;11.50;;;;;;;2.23;100.00;96456.81;4954595;28;20233;-73
2021/12/17 02:05:39;;;;;;;13.47;10.80;;;;;;;2.23;100.00;96449.50;4953156;29;20190;-73
2021/12/17 02:08:05;;;;;;;14.47;11.10;;;;;;;2.27;100.00;96449.56;4951819;29;20201;-73
2021/12/17 02:32:17;;;;;;;15.60;10.77;;;;;;;2.59;100.00;96439.16;4978788;28;20627;-73
2021/12/17 02:37:44;;;;;;;12.87;10.47;;;;;;;2.57;100.00;96439.53;4941783;28;20579;-73
2021/12/17 02:46:45;;;;;;;12.67;9.57;;;;;;;2.65;100.00;96432.31;4945547;29;20276;-73
2021/12/17 02:49:11;;;;;;;13.33;10.60;;;;;;;2.65;100.00;96422.28;4952794;28;20304;-73
2021/12/17 02:51:37;;;;;;;13.37;10.07;;;;;;;2.70;100.00;96421.19;4952700;29;20289;-73
2021/12/17 02:54:03;;;;;;;13.43;9.93;;;;;;;2.63;100.00;96410.31;4934900;29;20258;-73
2021/12/17 02:56:29;;;;;;;13.37;9.90;;;;;;;2.64;100.00;96409.94;4957046;28;20555;-73
2021/12/17 02:58:55;;;;;;;12.73;10.70;;;;;;;2.67;100.00;96420.00;4962027;28;20190;-72
2021/12/17 03:01:21;;;;;;;12.30;9.83;;;;;;;2.64;100.00;96414.56;4962007;28;20229;-73
2021/12/17 03:03:51;;;;;;;11.33;8.63;;;;;;;2.75;100.00;96424.31;4939429;28;20208;-73
2021/12/17 03:06:19;;;;;;;12.33;10.00;;;;;;;2.73;100.00;96410.44;4963717;28;20194;-73
2021/12/17 03:08:47;;;;;;;13.10;9.90;;;;;;;2.83;100.00;96430.56;4955608;28;20240;-73
2021/12/17 03:11:13;;;;;;;12.43;10.07;;;;;;;2.78;100.00;96425.50;4941357;28;20217;-73
2021/12/17 03:13:39;;;;;;;11.37;9.13;;;;;;;2.95;100.00;96414.91;4960810;28;20193;-73
2021/12/17 03:16:22;;;;;;;12.57;9.97;;;;;;;2.82;100.00;96413.59;4949178;29;20206;-73
2021/12/17 03:19:09;;;;;;;14.50;10.33;;;;;;;2.76;100.00;96415.09;4948884;28;20205;-73
2021/12/17 03:24:22;;;;;;;12.07;10.10;;;;;;;2.90;100.00;96423.31;4956581;28;20211;-73
2021/12/17 03:26:48;;;;;;;14.23;10.97;;;;;;;2.86;100.00;96419.03;4951574;29;20213;-73
2021/12/17 03:29:15;;;;;;;12.50;10.20;;;;;;;2.81;100.00;96419.34;4938208;28;20216;-73
2021/12/17 03:31:45;;;;;;;11.47;8.97;;;;;;;2.62;100.00;96422.22;4951426;28;20371;-73
2021/12/17 03:34:18;;;;;;;13.40;9.70;;;;;;;2.81;100.00;96422.06;4942933;29;20347;-72
2021/12/17 03:36:54;;;;;;;13.37;10.17;;;;;;;2.87;100.00;96426.75;4946672;28;20195;-73
2021/12/17 03:39:21;;;;;;;12.87;9.10;;;;;;;2.79;100.00;96430.53;4935224;29;20209;-72
2021/12/17 03:41:51;;;;;;;13.07;9.97;;;;;;;2.67;100.00;96430.78;4948004;28;20195;-73
2021/12/17 03:44:21;;;;;;;13.57;9.57;;;;;;;2.82;100.00;96426.31;4932043;29;20209;-73
2021/12/17 03:47:10;;;;;;;11.50;9.30;;;;;;;2.77;100.00;96426.63;4941462;28;20292;-73
2021/12/17 03:49:58;;;;;;;11.47;9.00;;;;;;;2.80;100.00;96417.81;4939754;29;20260;-73
2021/12/17 03:52:24;;;;;;;13.77;8.80;;;;;;;2.76;100.00;96430.47;4964409;28;20297;-73
2021/12/17 03:54:50;;;;;;;11.57;8.63;;;;;;;2.67;100.00;96430.78;4953265;29;20664;-73
2021/12/17 03:57:18;;;;;;;9.23;7.80;;;;;;;2.61;100.00;96434.97;4951473;29;20699;-73
2021/12/17 03:59:47;;;;;;;13.87;8.90;;;;;;;2.48;100.00;96425.53;4958002;28;20699;-73
2021/12/17 04:02:16;;;;;;;10.80;8.47;;;;;;;2.52;100.00;96428.28;4949716;28;20559;-73
2021/12/17 04:04:42;;;;;;;10.53;8.60;;;;;;;2.49;100.00;96421.72;4972090;28;20533;-73
2021/12/17 04:07:34;;;;;;;12.27;8.33;;;;;;;2.41;100.00;96417.38;4951755;28;20213;-72
2021/12/17 04:10:40;;;;;;;11.03;8.43;;;;;;;2.47;100.00;96430.19;4940146;29;20221;-73
2021/12/17 04:13:28;;;;;;;12.77;9.37;;;;;;;2.42;100.00;96433.19;4950422;29;20687;-73
2021/12/17 04:16:07;;;;;;;14.20;8.90;;;;;;;2.40;100.00;96427.41;4955331;28;20291;-73
2021/12/17 04:18:35;;;;;;;11.93;9.43;;;;;;;2.32;100.00;96430.38;4945457;28;20616;-73
2021/12/17 04:21:02;;;;;;;10.13;9.03;;;;;;;2.36;100.00;96429.25;4950316;28;20221;-73
2021/12/17 04:23:28;;;;;;;10.17;8.63;;;;;;;2.46;100.00;96428.59;4950807;29;20198;-73
2021/12/17 04:25:54;;;;;;;9.87;7.87;;;;;;;2.46;100.00;96428.59;4949188;28;20244;-73
2021/12/17 04:28:21;;;;;;;10.57;8.03;;;;;;;2.44;100.00;96428.19;4950344;28;20577;-73
2021/12/17 04:30:47;;;;;;;10.00;8.20;;;;;;;2.42;100.00;96432.41;4977699;28;20214;-73
2021/12/17 04:33:13;;;;;;;9.40;7.90;;;;;;;2.44;100.00;96425.50;4951244;29;20193;-73
2021/12/17 04:35:40;;;;;;;9.40;7.80;;;;;;;2.54;100.00;96434.88;4947785;29;20289;-72
2021/12/17 04:38:08;;;;;;;10.17;7.70;;;;;;;2.64;100.00;96426.13;4948522;29;20197;-73
2021/12/17 04:40:41;;;;;;;10.03;8.57;;;;;;;2.66;100.00;96418.44;4935021;29;20242;-73
2021/12/17 04:43:37;;;;;;;10.97;8.83;;;;;;;2.80;100.00;96402.38;4941522;29;20216;-73
2021/12/17 04:59:44;;;;;;;8.17;6.80;;;;;;;2.96;100.00;96399.47;4962066;28;20212;-73
2021/12/17 05:02:10;;;;;;;8.47;6.87;;;;;;;2.98;100.00;96399.88;4959291;28;20189;-73
2021/12/17 05:04:45;;;;;;;11.07;6.93;;;;;;;2.94;100.00;96388.25;4954600;28;20205;-73
2021/12/17 05:07:14;;;;;;;10.47;7.30;;;;;;;3.03;100.00;96389.53;4934985;29;20201;-73
2021/12/17 05:20:26;;;;;;;8.03;6.33;;;;;;;3.13;100.00;96396.94;4951117;28;20321;-72
2021/12/17 05:22:58;;;;;;;7.93;6.57;;;;;;;3.08;100.00;96380.28;4952179;29;20301;-72
2021/12/17 05:25:26;;;;;;;8.10;6.70;;;;;;;3.11;100.00;96374.94;4956436;28;20276;-72
2021/12/17 05:27:55;;;;;;;7.97;6.90;;;;;;;3.07;100.00;96374.13;4953307;29;20197;-72
2021/12/17 05:30:22;;;;;;;7.40;6.57;;;;;;;2.93;100.00;96379.41;4975579;28;20569;-72
2021/12/17 05:32:49;;;;;;;10.53;7.37;;;;;;;2.86;100.00;96378.56;4953170;29;20198;-72
2021/12/17 05:35:15;;;;;;;8.83;7.77;;;;;;;2.83;100.00;96369.28;4959296;28;20257;-72
2021/12/17 05:37:41;;;;;;;10.17;8.33;;;;;;;2.81;100.00;96374.28;4953660;29;21023;-73
2021/12/17 05:40:08;;;;;;;9.90;8.10;;;;;;;2.71;100.00;96388.44;4953786;28;20268;-72
2021/12/17 05:42:33;;;;;;;8.17;7.23;;;;;;;2.51;100.00;96386.28;4947475;29;20229;-72
2021/12/17 05:48:07;;;;;;;9.33;7.33;;;;;;;2.33;100.00;96394.16;4938077;29;20625;-71
2021/12/17 05:50:35;;;;;;;8.23;7.10;;;;;;;2.25;100.00;96406.81;4937890;29;20268;-72
2021/12/17 05:53:03;;;;;;;7.07;6.13;;;;;;;2.04;100.00;96376.09;4960710;28;20681;-72
2021/12/17 05:55:28;;;;;;;7.73;6.40;;;;;;;2.01;100.00;96393.78;4963017;28;20661;-72
2021/12/17 05:57:55;;;;;;;8.17;6.83;;;;;;;2.01;100.00;96401.09;4949432;28;20217;-72
2021/12/17 06:00:22;;;;;;;7.97;6.10;;;;;;;1.99;100.00;96409.53;4950065;28;20617;-72
2021/12/17 06:02:48;;;;;;;9.30;7.10;;;;;;;1.95;100.00;96410.66;4954792;28;20251;-72
2021/12/17 06:05:28;;;;;;;5.83;5.23;;;;;;;1.86;100.00;96408.22;4953360;29;20196;-73
2021/12/17 06:07:56;;;;;;;6.07;5.47;;;;;;;1.80;100.00;96406.97;4943749;29;20277;-72
2021/12/17 06:10:22;;;;;;;4.37;3.97;;;;;;;1.71;100.00;96401.09;4953333;28;20217;-72
2021/12/17 06:12:48;;;;;;;5.07;4.33;;;;;;;1.62;100.00;96402.47;4957040;28;20280;-72
2021/12/17 06:15:18;;;;;;;8.07;4.80;;;;;;;1.74;100.00;96405.72;4957851;28;20209;-72
2021/12/17 06:17:44;;;;;;;5.07;4.57;;;;;;;1.85;100.00;96422.81;4952333;28;20257;-73
2021/12/17 06:20:12;;;;;;;5.23;4.73;;;;;;;1.80;100.00;96425.06;4948067;28;20222;-72
2021/12/17 06:22:39;;;;;;;5.87;5.00;;;;;;;1.83;100.00;96429.72;4949957;29;20174;-72
2021/12/17 06:25:10;;;;;;;5.00;4.50;;;;;;;1.76;100.00;96432.31;4954143;28;20248;-73
2021/12/17 06:27:36;;;;;;;5.00;4.60;;;;;;;1.70;100.00;96433.72;4952270;29;20190;-73
2021/12/17 06:30:05;;;;;;;8.10;6.37;;;;;;;1.79;100.00;96447.72;4955985;28;20285;-73
2021/12/17 06:32:31;;;;;;;6.83;6.17;;;;;;;1.80;100.00;96444.66;4952571;28;20198;-72
2021/12/17 06:34:57;;;;;;;35.67;30.40;;;;;;;1.83;100.00;96451.25;4952942;29;20197;-72
2021/12/17 06:37:23;;;;;;;39.20;34.07;;;;;;;1.83;100.00;96441.25;4967131;28;20202;-72
2021/12/17 06:39:50;;;;;;;21.30;18.80;;;;;;;1.78;100.00;96448.88;4946738;28;20225;-73
2021/12/17 06:42:17;;;;;;;10.13;8.97;;;;;;;1.75;100.00;96441.53;4922259;29;20213;-73
2021/12/17 06:44:45;;;;;;;9.33;7.77;;;;;;;1.53;100.00;96448.50;4949082;29;20194;-73
2021/12/17 07:10:38;;;;;;;7.33;6.53;;;;;;;1.37;100.00;96450.56;4933353;29;20227;-73
2021/12/17 07:32:45;;;;;;;7.93;6.53;;;;;;;1.10;100.00;96432.81;4953228;28;20208;-72
2021/12/17 07:40:33;;;;;;;7.80;5.50;;;;;;;1.36;100.00;96438.22;4943118;28;20230;-73
2021/12/17 07:43:02;;;;;;;7.60;6.30;;;;;;;1.27;100.00;96435.78;4949883;29;20202;-72
2021/12/17 07:45:40;;;;;;;6.80;6.07;;;;;;;0.94;100.00;96438.28;4952152;28;20200;-72
2021/12/17 07:48:15;;;;;;;7.70;6.20;;;;;;;1.17;100.00;96428.31;4919600;29;20241;-72
2021/12/17 07:51:02;;;;;;;6.30;5.53;;;;;;;0.81;100.00;96426.16;4939934;29;20572;-72
2021/12/17 07:53:48;;;;;;;8.07;6.00;;;;;;;0.50;100.00;96422.84;4941131;29;20647;-72
2021/12/17 07:56:21;;;;;;;6.77;6.07;;;;;;;0.59;100.00;96434.97;4935664;29;20279;-73
2021/12/17 07:58:49;;;;;;;11.50;6.40;;;;;;;0.99;100.00;96439.91;4952941;28;20199;-73
2021/12/17 08:01:15;;;;;;;8.10;6.37;;;;;;;1.16;100.00;96428.66;4962488;28;20271;-73
2021/12/17 08:03:44;;;;;;;6.73;6.00;;;;;;;1.33;100.00;96422.78;4950648;29;20194;-73
2021/12/17 08:06:21;;;;;;;7.93;6.50;;;;;;;1.44;100.00;96436.44;4948437;29;20296;-73
2021/12/17 08:09:05;;;;;;;7.20;5.80;;;;;;;1.51;100.00;96423.84;4934484;29;20214;-72
2021/12/17 08:11:38;;;;;;;7.73;6.50;;;;;;;1.59;100.00;96435.50;4947885;29;20273;-72
2021/12/17 08:14:09;;;;;;;5.57;4.80;;;;;;;1.57;100.00;96427.00;4950652;28;20231;-72
2021/12/17 08:16:53;;;;;;;6.00;5.33;;;;;;;1.67;100.00;96446.03;4951237;29;20571;-73
2021/12/17 08:27:25;;;;;;;5.70;5.10;;;;;;;1.84;100.00;96453.59;4939452;29;20193;-72
2021/12/17 08:32:43;;;;;;;10.90;6.93;;;;;;;2.00;100.00;96461.50;4955699;28;20201;-72
2021/12/17 08:35:10;;;;;;;8.67;6.80;;;;;;;1.96;100.00;96456.06;4955565;29;20194;-73
2021/12/17 08:37:38;;;;;;;8.03;6.37;;;;;;;2.06;100.00;96451.97;4938390;29;20218;-73
2021/12/17 08:40:06;;;;;;;5.63;4.73;;;;;;;2.21;100.00;96448.31;4954459;29;20221;-73
2021/12/17 08:42:37;;;;;;;5.20;4.70;;;;;;;2.39;100.00;96443.94;4950489;29;20194;-72
2021/12/17 08:45:08;;;;;;;7.73;4.67;;;;;;;2.37;100.00;96452.41;4950122;29;20225;-72
2021/12/17 08:47:47;;;;;;;4.70;3.90;;;;;;;2.34;100.00;96436.19;4954293;29;20190;-73
2021/12/17 08:50:16;;;;;;;5.23;4.50;;;;;;;2.55;100.00;96439.09;4954099;28;20226;-72
2021/12/17 08:52:42;;;;;;;5.50;4.40;;;;;;;2.53;100.00;96429.84;4953811;29;20248;-72
2021/12/17 08:55:10;;;;;;;6.07;5.00;;;;;;;2.64;100.00;96431.53;4961225;28;20194;-72
2021/12/17 08:57:37;;;;;;;5.97;4.27;;;;;;;2.64;100.00;96438.81;4969138;28;20304;-73
2021/12/17 09:00:09;;;;;;;5.87;5.27;;;;;;;2.67;100.00;96446.19;4959664;28;20259;-73
2021/12/17 09:02:59;;;;;;;5.03;4.40;;;;;;;2.72;100.00;96438.53;4940169;29;20692;-72
2021/12/17 09:05:45;;;;;;;5.07;4.27;;;;;;;2.73;100.00;96432.00;4955503;28;20205;-73
2021/12/17 09:08:16;;;;;;;4.77;4.20;;;;;;;2.74;100.00;96443.56;4954243;28;20186;-73
2021/12/17 09:10:48;;;;;;;5.03;4.50;;;;;;;2.73;100.00;96434.72;4951874;29;20298;-72
2021/12/17 09:13:15;;;;;;;4.77;4.07;;;;;;;2.85;100.00;96450.63;4950736;29;20195;-73
2021/12/17 09:15:43;;;;;;;4.23;3.83;;;;;;;2.95;100.00;96452.69;4937520;29;20194;-73
2021/12/17 09:18:18;;;;;;;5.00;4.20;;;;;;;2.85;100.00;96456.00;4953643;29;20655;-73
2021/12/17 09:20:53;;;;;;;4.23;3.80;;;;;;;2.86;100.00;96451.41;4952631;28;20217;-72
2021/12/17 09:23:24;;;;;;;5.10;4.60;;;;;;;2.92;100.00;96458.03;4954410;29;20198;-72
2021/12/17 09:25:50;;;;;;;5.67;4.23;;;;;;;3.04;100.00;96449.66;4943258;29;20193;-72
2021/12/17 09:28:18;;;;;;;5.37;4.80;;;;;;;2.92;100.00;96447.25;4950014;28;20213;-73
2021/12/17 09:30:45;;;;;;;5.90;4.63;;;;;;;3.13;100.00;96447.44;4980533;28;20219;-72
2021/12/17 09:33:11;;;;;;;4.20;3.80;;;;;;;3.19;100.00;96437.88;4972395;28;20630;-73
2021/12/17 09:35:36;;;;;;;5.30;4.50;;;;;;;3.16;100.00;96438.59;4953492;28;20277;-73
2021/12/17 09:38:02;;;;;;;4.53;3.17;;;;;;;3.23;100.00;96438.66;4948439;28;20195;-73
2021/12/17 09:40:28;;;;;;;5.87;4.63;;;;;;;3.33;100.00;96435.28;4935995;29;20347;-73
2021/12/17 09:42:55;;;;;;;4.90;4.40;;;;;;;3.37;100.00;96447.69;4935434;29;20264;-73
2021/12/17 09:45:21;;;;;;;6.97;5.53;;;;;;;3.45;100.00;96445.78;4950210;29;20194;-73
2021/12/17 09:47:47;;;;;;;13.20;9.73;;;;;;;3.53;100.00;96431.19;4954599;28;20221;-73
2021/12/17 09:50:16;;;;;;;4.03;3.63;;;;;;;3.46;100.00;96434.63;4945921;28;20240;-73
2021/12/17 09:52:42;;;;;;;4.03;3.67;;;;;;;3.28;100.00;96436.41;4938827;29;20287;-73
2021/12/17 09:55:08;;;;;;;4.47;4.07;;;;;;;3.45;100.00;96424.19;4954614;28;20597;-73
2021/12/17 09:57:37;;;;;;;4.67;3.70;;;;;;;3.65;100.00;96430.91;4953921;28;20194;-72
2021/12/17 10:00:21;;;;;;;4.67;3.83;;;;;;;3.73;100.00;96417.06;4952742;28;20210;-72
2021/12/17 10:02:48;;;;;;;4.00;3.60;;;;;;;3.73;100.00;96422.47;4949873;28;20196;-72
2021/12/17 10:05:18;;;;;;;4.83;3.83;;;;;;;3.83;100.00;96425.63;4967044;28;20190;-72
2021/12/17 10:07:44;;;;;;;4.33;3.50;;;;;;;3.85;100.00;96429.53;4967764;28;20205;-72
2021/12/17 10:10:11;;;;;;;4.03;3.63;;;;;;;4.00;100.00;96424.97;4954857;28;20281;-73
2021/12/17 10:12:39;;;;;;;4.57;3.50;;;;;;;4.09;100.00;96423.47;4948969;29;20249;-72
2021/12/17 10:15:19;;;;;;;3.13;2.83;;;;;;;3.95;100.00;96418.00;4933608;29;20241;-73
2021/12/17 10:18:01;;;;;;;3.57;3.27;;;;;;;4.09;100.00;96422.72;4944289;29;20208;-73
2021/12/17 10:20:32;;;;;;;3.40;3.10;;;;;;;4.10;100.00;96419.63;4949431;28;20245;-73
2021/12/17 10:23:07;;;;;;;3.27;2.97;;;;;;;4.00;100.00;96414.94;4939815;28;20190;-73
2021/12/17 10:25:35;;;;;;;3.27;2.97;;;;;;;3.97;100.00;96423.03;4952609;28;20193;-73
2021/12/17 10:28:05;;;;;;;3.40;3.07;;;;;;;4.14;100.00;96427.75;4953776;28;20189;-72
2021/12/17 10:30:33;;;;;;;2.73;2.53;;;;;;;4.24;100.00;96416.22;4970969;28;20237;-73
2021/12/17 10:33:01;;;;;;;2.73;2.47;;;;;;;4.32;100.00;96415.88;4953846;29;20201;-72
2021/12/17 10:35:32;;;;;;;3.50;3.20;;;;;;;4.35;100.00;96404.28;4953471;29;20206;-73
2021/12/17 10:38:03;;;;;;;4.23;3.20;;;;;;;4.36;100.00;96396.97;4942580;28;20199;-72
2021/12/17 10:40:29;;;;;;;2.90;2.70;;;;;;;4.41;100.00;96397.34;4946039;28;20210;-72
2021/12/17 10:43:04;;;;;;;2.70;2.50;;;;;;;4.46;100.00;96394.28;4946402;29;20206;-73
2021/12/17 10:45:34;;;;;;;3.57;2.80;;;;;;;4.44;100.00;96399.31;4936418;29;20185;-72
2021/12/17 10:48:23;;;;;;;3.13;2.83;;;;;;;4.45;100.00;96394.66;4953378;28;20209;-73
2021/12/17 10:50:50;;;;;;;3.20;2.53;;;;;;;4.47;100.00;96395.84;4946494;28;20218;-73
2021/12/17 10:53:15;;;;;;;3.30;3.00;;;;;;;4.54;100.00;96395.09;4949017;29;20297;-73
2021/12/17 10:55:46;;;;;;;2.70;2.30;;;;;;;4.75;100.00;96387.78;4952578;28;20333;-72
2021/12/17 10:58:12;;;;;;;2.67;2.47;;;;;;;4.85;100.00;96380.88;4940126;29;20690;-73
2021/12/17 11:01:06;;;;;;;3.17;2.70;;;;;;;4.98;100.00;96382.03;4957234;28;20673;-72
2021/12/17 11:03:43;;;;;;;3.50;2.90;;;;;;;5.00;100.00;96381.66;4949061;29;20186;-73
2021/12/17 11:06:09;;;;;;;2.80;2.60;;;;;;;4.93;100.00;96388.63;4934353;29;20720;-73
2021/12/17 11:08:37;;;;;;;4.57;3.10;;;;;;;4.98;100.00;96384.75;4934278;29;20186;-72
2021/12/17 11:11:11;;;;;;;3.43;3.13;;;;;;;5.02;100.00;96388.25;4934949;29;20586;-72
2021/12/17 11:13:53;;;;;;;2.93;2.73;;;;;;;4.97;100.00;96393.25;4933715;29;20201;-72
2021/12/17 11:16:20;;;;;;;3.30;3.00;;;;;;;5.08;100.00;96388.63;4933858;29;20562;-72
2021/12/17 11:18:49;;;;;;;3.20;2.90;;;;;;;5.01;100.00;96392.09;4950922;29;20202;-72
2021/12/17 11:21:16;;;;;;;2.90;2.40;;;;;;;5.05;100.00;96394.81;4943387;28;20276;-73
2021/12/17 11:23:42;;;;;;;3.00;2.37;;;;;;;4.85;100.00;96389.75;4954963;28;20243;-72
2021/12/17 11:26:08;;;;;;;3.27;2.57;;;;;;;5.58;100.00;96390.19;4971486;28;20213;-72
2021/12/17 11:28:34;;;;;;;2.47;2.27;;;;;;;5.32;100.00;96391.38;4958645;28;20187;-73
2021/12/17 11:31:00;;;;;;;2.60;2.40;;;;;;;5.41;100.00;96380.94;4951649;28;20213;-72
2021/12/17 11:33:27;;;;;;;4.00;2.40;;;;;;;5.39;100.00;96369.69;4951125;29;20523;-72
2021/12/17 11:35:52;;;;;;;3.00;2.27;;;;;;;6.15;100.00;96386.25;4953089;29;20193;-73
2021/12/17 11:38:46;;;;;;;2.30;2.10;;;;;;;6.04;100.00;96377.38;4950827;29;20544;-72
2021/12/17 11:41:16;;;;;;;2.13;1.93;;;;;;;6.39;100.00;96376.47;4950670;28;20220;-73
2021/12/17 11:43:58;;;;;;;2.50;2.30;;;;;;;5.76;100.00;96372.75;4951617;29;20189;-72
2021/12/17 11:46:25;;;;;;;2.63;2.20;;;;;;;5.52;100.00;96370.06;4952700;28;20236;-73
2021/12/17 11:48:59;;;;;;;4.33;2.67;;;;;;;5.36;100.00;96367.75;4950499;28;20218;-72
2021/12/17 11:51:29;;;;;;;2.80;2.40;;;;;;;5.32;100.00;96369.69;4942568;29;20213;-72
2021/12/17 11:53:54;;;;;;;3.00;2.70;;;;;;;5.34;100.00;96366.59;4951594;29;20218;-73
2021/12/17 11:56:40;;;;;;;3.10;2.80;;;;;;;5.14;100.00;96376.25;4953091;28;20225;-73
2021/12/17 11:59:07;;;;;;;4.00;3.30;;;;;;;5.19;100.00;96363.13;4975906;28;20212;-72
2021/12/17 12:02:05;;;;;;;4.30;3.47;;;;;;;5.12;100.00;96371.25;4950273;28;20252;-72
2021/12/17 12:04:52;;;;;;;4.00;3.60;;;;;;;5.08;100.00;96375.09;4954732;29;20186;-72
2021/12/17 12:07:20;;;;;;;3.87;3.50;;;;;;;5.13;100.00;96377.41;4955178;29;20201;-72
2021/12/17 12:09:59;;;;;;;3.93;3.47;;;;;;;5.15;100.00;96361.56;4937823;28;20688;-72
2021/12/17 12:12:34;;;;;;;4.70;4.30;;;;;;;5.15;100.00;96364.25;4939807;29;20198;-72
2021/12/17 12:15:19;;;;;;;4.70;4.07;;;;;;;5.23;100.00;96360.38;4955658;29;20203;-72
2021/12/17 12:17:57;;;;;;;4.97;4.00;;;;;;;5.29;100.00;96364.28;4955751;29;20197;-73
2021/12/17 12:20:48;;;;;;;5.27;4.37;;;;;;;5.41;100.00;96351.13;4956239;28;20296;-73
2021/12/17 12:23:19;;;;;;;4.93;4.27;;;;;;;5.35;100.00;96341.03;4953546;29;20206;-73
2021/12/17 12:25:47;;;;;;;5.77;4.33;;;;;;;5.36;100.00;96337.94;4973433;28;20196;-72
2021/12/17 12:28:14;;;;;;;4.90;4.40;;;;;;;5.41;100.00;96343.00;4960232;28;20272;-73
2021/12/17 12:30:43;;;;;;;5.43;4.93;;;;;;;5.52;100.00;96351.88;4957924;28;20243;-72
2021/12/17 12:33:10;;;;;;;5.63;5.03;;;;;;;5.56;100.00;96355.38;4954076;29;20198;-72
2021/12/17 12:35:36;;;;;;;5.63;5.00;;;;;;;5.52;100.00;96349.16;4955837;28;20285;-72
2021/12/17 12:38:12;;;;;;;5.73;5.13;;;;;;;5.42;100.00;96355.38;4955976;28;20284;-73
2021/12/17 12:40:44;;;;;;;5.23;4.73;;;;;;;5.50;100.00;96353.41;4945487;29;20218;-72
2021/12/17 12:43:25;;;;;;;7.37;5.60;;;;;;;5.57;100.00;96351.47;4936558;29;20186;-72
2021/12/17 12:45:51;;;;;;;6.90;5.03;;;;;;;5.55;100.00;96347.63;4937756;29;20197;-72
2021/12/17 12:48:32;;;;;;;6.27;5.67;;;;;;;5.65;100.00;96357.69;4950192;29;20773;-72
2021/12/17 12:51:19;;;;;;;7.10;5.77;;;;;;;5.62;100.00;96348.38;4951921;28;20225;-72
2021/12/17 12:54:08;;;;;;;6.60;5.77;;;;;;;5.72;100.00;96346.81;4956152;28;20204;-72
2021/12/17 12:56:38;;;;;;;6.87;5.47;;;;;;;5.72;100.00;96350.28;4955260;28;20218;-73
2021/12/17 12:59:06;;;;;;;8.93;7.40;;;;;;;5.82;100.00;96352.22;4972477;28;20190;-72
2021/12/17 13:01:32;;;;;;;11.60;7.80;;;;;;;5.86;100.00;96355.72;4966142;28;20217;-72
2021/12/17 13:03:58;;;;;;;19.93;15.43;;;;;;;5.81;100.00;96358.03;4974911;28;20658;-72
2021/12/17 13:06:25;;;;;;;11.97;8.40;;;;;;;5.81;100.00;96358.03;4941451;28;20195;-72
2021/12/17 13:08:58;;;;;;;8.70;6.67;;;;;;;5.76;100.00;96359.19;4952331;28;20684;-72
2021/12/17 13:11:24;;;;;;;8.53;7.37;;;;;;;5.87;100.00;96354.53;4949545;28;20226;-72
2021/12/17 13:13:54;;;;;;;9.87;7.07;;;;;;;5.65;100.00;96361.13;4935949;29;20533;-72
2021/12/17 13:24:29;;;;;;;10.53;7.53;;;;;;;4.85;100.00;96353.81;4960954;28;20201;-72
2021/12/17 13:27:09;;;;;;;12.40;8.30;;;;;;;4.99;100.00;96355.75;4960640;28;20190;-72
2021/12/17 13:29:38;;;;;;;11.77;7.87;;;;;;;5.01;100.00;96356.13;4961375;28;20597;-73
2021/12/17 13:32:14;;;;;;;12.50;10.10;;;;;;;5.10;100.00;96373.56;4967860;28;20212;-72
2021/12/17 13:34:42;;;;;;;10.80;8.80;;;;;;;4.94;100.00;96365.78;4955558;28;20225;-73
2021/12/17 13:37:15;;;;;;;16.20;8.23;;;;;;;4.87;100.00;96363.06;4955317;29;20296;-72
2021/12/17 13:39:47;;;;;;;15.20;8.93;;;;;;;4.73;100.00;96363.03;4953839;28;20206;-72
2021/12/17 13:42:22;;;;;;;11.47;8.23;;;;;;;5.07;100.00;96368.13;4945579;28;20189;-72
2021/12/17 13:44:51;;;;;;;13.27;9.30;;;;;;;5.08;100.00;96367.75;4953714;29;20220;-72
2021/12/17 13:47:20;;;;;;;22.63;16.07;;;;;;;5.13;100.00;96363.88;4953186;28;20684;-72
2021/12/17 13:50:09;;;;;;;15.90;12.17;;;;;;;5.00;100.00;96377.03;4953186;28;20233;-72
2021/12/17 13:52:44;;;;;;;15.33;11.30;;;;;;;4.88;100.00;96370.06;4952967;29;20193;-72
2021/12/17 13:55:13;;;;;;;11.33;8.50;;;;;;;4.65;100.00;96372.31;4955351;28;20225;-72
2021/12/17 13:57:41;;;;;;;14.03;11.27;;;;;;;4.64;100.00;96380.81;4951252;28;20249;-72
2021/12/17 14:00:10;;;;;;;11.20;8.23;;;;;;;4.36;100.00;96383.44;4957790;28;20292;-72
2021/12/17 14:02:41;;;;;;;12.90;10.13;;;;;;;4.44;100.00;96383.09;4956412;28;20197;-72
2021/12/17 14:05:08;;;;;;;14.73;11.03;;;;;;;4.26;100.00;96389.56;4951374;28;20201;-73
2021/12/17 14:07:36;;;;;;;10.90;8.87;;;;;;;4.23;100.00;96393.00;4950936;29;20281;-72
2021/12/17 14:10:05;;;;;;;13.27;11.47;;;;;;;4.27;100.00;96394.59;4954619;28;20229;-73
2021/12/17 14:12:36;;;;;;;11.13;10.00;;;;;;;4.15;100.00;96403.03;4951477;28;20198;-73
2021/12/17 14:15:09;;;;;;;12.50;11.20;;;;;;;4.24;100.00;96408.09;4952959;28;20201;-73
2021/12/17 14:17:37;;;;;;;12.33;9.43;;;;;;;4.11;100.00;96417.69;4952199;29;20296;-73
2021/12/17 14:20:07;;;;;;;11.63;10.07;;;;;;;4.05;100.00;96421.91;4952125;28;20280;-73
2021/12/17 14:22:36;;;;;;;10.10;9.10;;;;;;;4.07;100.00;96420.38;4952488;28;20201;-73
2021/12/17 14:25:29;;;;;;;11.47;8.80;;;;;;;3.94;100.00;96424.53;4967077;28;20220;-72
2021/12/17 14:27:57;;;;;;;12.00;9.90;;;;;;;4.00;100.00;96424.97;4936175;28;20680;-72
2021/12/17 14:30:26;;;;;;;27.07;15.10;;;;;;;4.01;100.00;96426.50;4961713;28;20217;-73
2021/12/17 14:32:55;;;;;;;17.23;11.93;;;;;;;3.94;100.00;96432.66;4955312;28;20265;-73
2021/12/17 14:35:59;;;;;;;14.43;11.00;;;;;;;3.92;100.00;96434.94;4949729;29;20189;-73
2021/12/17 14:38:41;;;;;;;20.30;14.73;;;;;;;3.89;100.00;96432.22;4934797;29;20190;-73
2021/12/17 14:41:11;;;;;;;21.30;15.80;;;;;;;3.90;100.00;96428.38;4943053;29;20253;-73
2021/12/17 14:43:53;;;;;;;11.07;8.63;;;;;;;3.89;100.00;96438.41;4939267;29;20226;-73
2021/12/17 14:46:24;;;;;;;9.60;8.57;;;;;;;3.79;100.00;96436.41;4948270;28;20285;-73
2021/12/17 14:57:14;;;;;;;9.33;8.33;;;;;;;3.65;100.00;96452.50;4944348;28;20218;-73
2021/12/17 15:05:18;;;;;;;12.30;8.97;;;;;;;3.55;100.00;96437.00;4958816;28;20221;-73
2021/12/17 15:07:45;;;;;;;9.27;8.37;;;;;;;3.53;100.00;96428.50;4952372;28;20305;-73
2021/12/17 15:10:12;;;;;;;9.23;8.13;;;;;;;3.46;100.00;96418.41;4934509;28;20233;-73
2021/12/17 15:12:38;;;;;;;10.40;8.83;;;;;;;3.48;100.00;96412.63;4956766;28;20201;-73
2021/12/17 15:15:35;;;;;;;9.73;8.63;;;;;;;3.40;100.00;96411.03;4953302;28;20197;-73
2021/12/17 15:18:02;;;;;;;9.20;8.23;;;;;;;3.34;100.00;96410.59;4951741;29;20206;-73